Flight Track Log - Related Links

Times and Time Zones

All times are in EDT time to prevent confusion due to time zone crossing. See the EJA396 flight status page for this flight to view local times or setup timezone preferences in your user account.

Time Position Orientation Groundspeed Altitude Reporting Facility
EDT Latitude Longitude Course Direction KTS MPH feet Rate Location/Type
Sat 03:41:13 PM 36.6000 -121.8667 338° Northwest 165 190 2,400  Level Northern Cal TRACON
Sat 03:42:13 PM 36.6667 -121.9000 338° Northwest 219 252 5,700 2,300 Climbing Northern Cal TRACON
Sat 03:43:13 PM 36.7000 -121.9333 321° Northwest 276 318 7,000 1,650 Climbing Northern Cal TRACON
Sat 03:44:13 PM 36.6500 -121.9667 208° Southwest 290 334 9,000 960 Climbing Northern Cal TRACON
Sat 03:45:18 PM 36.6006 -121.8869 128° Southeast 298 343 9,000 1,181 Level Oakland Center
Sat 03:46:20 PM 36.5572 -121.7964 121° Southeast 297 342 11,500 2,661 Climbing Oakland Center
Sat 03:47:13 PM 36.5167 -121.7167 122° Southeast 319 367 14,100 2,655 Climbing Northern Cal TRACON
Sat 03:48:13 PM 36.4667 -121.6167 122° Southeast 344 396 16,500 1,924 Climbing Northern Cal TRACON
Sat 03:49:24 PM 36.4100 -121.4983 121° Southeast 359 413 18,300 1,128 Climbing Oakland Center
Sat 03:50:26 PM 36.3536 -121.3825 121° Southeast 385 443 19,000 976 Climbing Oakland Center
Sat 03:51:27 PM 36.2944 -121.2636 122° Southeast 401 461 20,300 1,366 Climbing Oakland Center
Sat 03:52:29 PM 36.2297 -121.1464 124° Southeast 410 472 21,800 1,610 Climbing Oakland Center
Sat 03:53:30 PM 36.1489 -121.0036 125° Southeast 420 483 23,600 1,659 Climbing Oakland Center
Sat 03:54:32 PM 36.0814 -120.8814 124° Southeast 426 490 25,200 1,561 Climbing Oakland Center
Sat 03:55:33 PM 36.0139 -120.7594 124° Southeast 429 494 26,800 1,512 Climbing Oakland Center
Sat 03:56:35 PM 35.9453 -120.6383 125° Southeast 431 496 28,300 1,463 Climbing Oakland Center
Sat 03:57:36 PM 35.8769 -120.5147 124° Southeast 434 499 29,800 1,463 Climbing Oakland Center
Sat 03:58:38 PM 35.7992 -120.4033 131° Southeast 429 494 31,300 1,463 Climbing Oakland Center
Sat 03:59:39 PM 35.7133 -120.3056 137° Southeast 421 484 32,800 1,463 Climbing Oakland Center
Sat 04:00:41 PM 35.6294 -120.2061 136° Southeast 416 479 34,300 1,463 Climbing Oakland Center
Sat 04:01:42 PM 35.5467 -120.1069 136° Southeast 410 472 35,800 1,463 Climbing Oakland Center
Sat 04:02:44 PM 35.4581 -120.0247 143° Southeast 397 457 37,300 1,317 Climbing Oakland Center
Sat 04:03:45 PM 35.3786 -119.9381 138° Southeast 386 444 38,500 1,149 Climbing Oakland Center
Sat 04:04:18 PM 35.3450 -119.8689 121° Southeast 392 451 39,100 1,011 Climbing Los Angeles Center
Sat 04:05:20 PM 35.2886 -119.7544 121° Southeast 392 451 40,100 919 Climbing Los Angeles Center
Sat 04:06:22 PM 35.2336 -119.6419 121° Southeast 387 445 41,000 439 Climbing Los Angeles Center
Sat 04:07:23 PM 35.1675 -119.5056 121° Southeast 390 449 41,000  Level Los Angeles Center
Sat 04:08:25 PM 35.1092 -119.3869 121° Southeast 403 464 41,000  Level Los Angeles Center
Sat 04:09:27 PM 35.0494 -119.2658 121° Southeast 413 475 41,000  Level Los Angeles Center
Sat 04:10:29 PM 34.9886 -119.1419 121° Southeast 424 488 41,000  Level Los Angeles Center
Sat 04:11:31 PM 34.9436 -119.0031 112° Southeast 440 506 41,000  Level Los Angeles Center
Sat 04:12:33 PM 34.8978 -118.8475 110° East 442 509 41,000  Level Los Angeles Center
Sat 04:13:34 PM 34.8581 -118.7069 109° East 439 505 41,000  Level Los Angeles Center
Sat 04:14:36 PM 34.8178 -118.5678 109° East 436 502 41,000  Level Los Angeles Center
Sat 04:15:38 PM 34.7808 -118.4425 110° East 430 495 41,000  Level Los Angeles Center
Sat 04:16:40 PM 34.7331 -118.2792 110° East 428 493 41,000  Level Los Angeles Center
Sat 04:17:42 PM 34.6928 -118.1447 110° East 427 491 41,000  Level Los Angeles Center
Sat 04:18:44 PM 34.6531 -118.0111 110° East 424 488 41,000  Level Los Angeles Center
Sat 04:19:46 PM 34.6128 -117.8778 110° East 424 488 41,000  Level Los Angeles Center
Sat 04:20:48 PM 34.5733 -117.7439 110° East 425 489 41,000  Level Los Angeles Center
Sat 04:21:50 PM 34.5247 -117.5833 110° East 427 491 41,000  Level Los Angeles Center
Sat 04:22:52 PM 34.4853 -117.4494 110° East 427 491 41,000  Level Los Angeles Center
Sat 04:23:54 PM 34.4450 -117.3164 110° East 425 489 41,000  Level Los Angeles Center
Sat 04:24:56 PM 34.4033 -117.1833 111° Southeast 426 490 41,000  Level Los Angeles Center
Sat 04:25:58 PM 34.3642 -117.0511 110° East 422 486 41,000  Level Los Angeles Center
Sat 04:27:00 PM 34.3158 -116.8931 110° East 421 484 41,000  Level Los Angeles Center
Sat 04:28:02 PM 34.2744 -116.7617 111° Southeast 421 484 41,000  Level Los Angeles Center
Sat 04:29:03 PM 34.2344 -116.6292 110° East 419 482 41,000  Level Los Angeles Center
Sat 04:30:05 PM 34.1933 -116.4947 110° East 427 491 41,000  Level Los Angeles Center
Sat 04:31:07 PM 34.1531 -116.3628 110° East 423 487 41,000  Level Los Angeles Center
Sat 04:32:09 PM 34.1081 -116.2228 111° Southeast 414 476 41,000  Level Los Angeles Center
Sat 04:33:11 PM 34.0678 -116.0944 111° Southeast 410 472 41,000  Level Los Angeles Center
Sat 04:34:13 PM 34.0267 -115.9633 111° Southeast 413 475 41,000  Level Los Angeles Center
Sat 04:35:15 PM 33.9833 -115.8303 111° Southeast 423 487 41,000  Level Los Angeles Center
Sat 04:36:17 PM 33.9328 -115.6731 111° Southeast 419 482 41,000  Level Los Angeles Center
Sat 04:37:19 PM 33.8917 -115.5439 111° Southeast 414 476 41,000  Level Los Angeles Center
Sat 04:38:21 PM 33.8489 -115.4139 112° Southeast 417 480 41,000  Level Los Angeles Center
Sat 04:39:23 PM 33.8061 -115.2839 112° Southeast 417 480 41,000  Level Los Angeles Center
Sat 04:40:25 PM 33.7644 -115.1539 111° Southeast 417 480 41,000  Level Los Angeles Center
Sat 04:41:27 PM 33.7219 -115.0236 111° Southeast 418 481 41,000  Level Los Angeles Center
Sat 04:42:28 PM 33.6794 -114.8939 111° Southeast 417 480 41,000  Level Los Angeles Center
Sat 04:43:30 PM 33.6283 -114.7389 112° Southeast 418 481 41,000  Level Los Angeles Center
Sat 04:44:32 PM 33.5858 -114.6108 112° Southeast 414 476 41,000  Level Los Angeles Center
Sat 04:45:34 PM 33.5433 -114.4811 111° Southeast 417 480 41,000  Level Los Angeles Center
Sat 04:46:36 PM 33.5169 -114.3436 103° East 426 490 41,000  Level Los Angeles Center
Sat 04:47:46 PM 33.4922 -114.1836 100° East 424 488 41,000  Level Albuquerque Center
Sat 04:48:47 PM 33.4669 -114.0461 102° East 424 488 41,000  Level Albuquerque Center
Sat 04:49:49 PM 33.4414 -113.9094 103° East 422 486 41,000  Level Albuquerque Center
Sat 04:50:51 PM 33.4181 -113.7719 101° East 422 486 41,000  Level Albuquerque Center
Sat 04:51:52 PM 33.3875 -113.6078 103° East 422 486 41,000  Level Albuquerque Center
Sat 04:52:54 PM 33.3639 -113.4717 102° East 418 481 41,000  Level Albuquerque Center
Sat 04:53:55 PM 33.3369 -113.3353 103° East 420 483 41,000  Level Albuquerque Center
Sat 04:54:57 PM 33.3125 -113.1989 102° East 419 482 41,000  Level Albuquerque Center
Sat 04:55:59 PM 33.2867 -113.0608 103° East 422 486 41,000  Level Albuquerque Center
Sat 04:57:00 PM 33.2603 -112.9231 103° East 424 488 41,000  Level Albuquerque Center
Sat 04:58:02 PM 33.2350 -112.7858 102° East 424 488 41,000  Level Albuquerque Center
Sat 04:59:03 PM 33.2086 -112.6486 103° East 422 486 41,000  Level Albuquerque Center
Sat 05:00:05 PM 33.1808 -112.5072 103° East 420 483 41,000  Level Albuquerque Center
Sat 05:01:07 PM 33.1550 -112.3717 103° East 422 486 41,000  Level Albuquerque Center
Sat 05:02:08 PM 33.1231 -112.2083 103° East 423 487 41,000  Level Albuquerque Center
Sat 05:03:10 PM 33.0969 -112.0722 103° East 424 488 41,000  Level Albuquerque Center
Sat 05:04:11 PM 33.0697 -111.9364 103° East 423 487 41,000  Level Albuquerque Center
Sat 05:05:13 PM 33.0439 -111.8011 103° East 423 487 41,000  Level Albuquerque Center
Sat 05:06:14 PM 33.0178 -111.6656 103° East 422 486 41,000  Level Albuquerque Center
Sat 05:07:16 PM 32.9911 -111.5303 103° East 422 486 41,000  Level Albuquerque Center
Sat 05:08:18 PM 32.9636 -111.3953 104° East 422 486 41,000  Level Albuquerque Center
Sat 05:09:19 PM 32.9308 -111.2319 103° East 424 488 41,000  Level Albuquerque Center
Sat 05:10:21 PM 32.9036 -111.0958 103° East 424 488 41,000  Level Albuquerque Center
Sat 05:11:22 PM 32.8750 -110.9617 104° East 422 486 41,000  Level Albuquerque Center
Sat 05:12:24 PM 32.8481 -110.8256 103° East 424 488 41,000  Level Albuquerque Center
Sat 05:13:26 PM 32.8200 -110.6900 104° East 423 487 41,000  Level Albuquerque Center
Sat 05:14:27 PM 32.7883 -110.5422 104° East 423 487 41,000  Level Albuquerque Center
Sat 05:15:29 PM 32.7600 -110.4072 104° East 422 486 41,000  Level Albuquerque Center
Sat 05:16:30 PM 32.7325 -110.2728 104° East 422 486 41,000  Level Albuquerque Center
Sat 05:17:32 PM 32.7039 -110.1389 104° East 420 483 41,000  Level Albuquerque Center
Sat 05:18:34 PM 32.6756 -110.0047 104° East 421 484 41,000  Level Albuquerque Center
Sat 05:19:35 PM 32.6408 -109.8456 104° East 419 482 41,000  Level Albuquerque Center
Sat 05:20:37 PM 32.6108 -109.7119 105° East 420 483 41,000  Level Albuquerque Center
Sat 05:21:38 PM 32.5792 -109.5761 105° East 427 491 41,000  Level Albuquerque Center
Sat 05:22:40 PM 32.5500 -109.4428 105° East 424 488 41,000  Level Albuquerque Center
Sat 05:23:41 PM 32.5214 -109.3108 104° East 420 483 41,000  Level Albuquerque Center
Sat 05:24:43 PM 32.4925 -109.1786 104° East 419 482 41,000  Level Albuquerque Center
Sat 05:25:45 PM 32.4575 -109.0208 105° East 418 481 41,000  Level Albuquerque Center
Sat 05:26:46 PM 32.4286 -108.8892 105° East 418 481 41,000  Level Albuquerque Center
Sat 05:27:48 PM 32.3989 -108.7564 105° East 419 482 41,000  Level Albuquerque Center
Sat 05:28:49 PM 32.3689 -108.6258 105° East 416 479 41,000  Level Albuquerque Center
Sat 05:29:51 PM 32.3394 -108.4953 105° East 414 476 41,000  Level Albuquerque Center
Sat 05:30:53 PM 32.3092 -108.3617 105° East 413 475 41,000  Level Albuquerque Center
Sat 05:31:54 PM 32.2789 -108.2308 105° East 414 476 41,000  Level Albuquerque Center
Sat 05:32:56 PM 32.2442 -108.0753 105° East 411 473 41,000  Level Albuquerque Center
Sat 05:33:57 PM 32.2128 -107.9447 106° East 414 476 41,000  Level Albuquerque Center
Sat 05:34:59 PM 32.1828 -107.8153 105° East 413 475 41,000  Level Albuquerque Center
Sat 05:36:00 PM 32.1528 -107.6847 105° East 414 476 41,000  Level Albuquerque Center
Sat 05:37:02 PM 32.1231 -107.5531 105° East 416 479 41,000  Level Albuquerque Center
Sat 05:38:04 PM 32.0922 -107.4244 106° East 414 476 41,000  Level Albuquerque Center
Sat 05:39:05 PM 32.0608 -107.2942 106° East 415 478 41,000  Level Albuquerque Center
Sat 05:40:07 PM 32.0247 -107.1383 105° East 415 478 41,000  Level Albuquerque Center
Sat 05:41:09 PM 31.9947 -107.0086 105° East 414 476 41,000  Level Albuquerque Center
Sat 05:42:10 PM 31.9636 -106.8772 106° East 417 480 41,000  Level Albuquerque Center
Sat 05:43:12 PM 31.9319 -106.7514 106° East 410 472 41,000  Level Albuquerque Center
Sat 05:44:13 PM 31.8997 -106.6225 106° East 412 474 41,000  Level Albuquerque Center
Sat 05:45:15 PM 31.8675 -106.4908 106° East 418 481 41,000  Level Albuquerque Center
Sat 05:46:17 PM 31.8367 -106.3589 105° East 420 483 41,000  Level Albuquerque Center
Sat 05:47:18 PM 31.7983 -106.2014 106° East 430 495 41,000  Level Albuquerque Center
Sat 05:48:20 PM 31.7642 -106.0731 107° East 413 475 41,000  Level Albuquerque Center
Sat 05:49:21 PM 31.7319 -105.9439 106° East 414 476 41,000  Level Albuquerque Center
Sat 05:50:23 PM 31.6986 -105.8144 107° East 415 478 41,000  Level Albuquerque Center
Sat 05:51:24 PM 31.6664 -105.6836 106° East 416 479 41,000  Level Albuquerque Center
Sat 05:52:26 PM 31.6331 -105.5531 107° East 417 480 41,000  Level Albuquerque Center
Sat 05:53:28 PM 31.6000 -105.4219 106° East 418 481 41,000  Level Albuquerque Center
Sat 05:54:29 PM 31.5681 -105.2914 106° East 417 480 41,000  Level Albuquerque Center
Sat 05:55:31 PM 31.5278 -105.1364 107° East 414 476 41,000  Level Albuquerque Center
Sat 05:56:32 PM 31.4947 -105.0058 107° East 415 478 41,000  Level Albuquerque Center
Sat 05:57:33 PM 31.4606 -104.8747 107° East 418 481 41,000  Level Albuquerque Center
Sat 05:58:35 PM 31.4272 -104.7436 107° East 418 481 41,000  Level Albuquerque Center
Sat 05:59:36 PM 31.3942 -104.6139 107° East 416 479 41,000  Level Albuquerque Center
Sat 06:00:38 PM 31.3592 -104.4831 107° East 418 481 41,000  Level Albuquerque Center
Sat 06:01:39 PM 31.3267 -104.3522 106° East 418 481 41,000  Level Albuquerque Center
Sat 06:02:41 PM 31.2908 -104.2217 108° East 419 482 41,000  Level Albuquerque Center
Sat 06:03:42 PM 31.2558 -104.0903 107° East 423 487 41,000  Level Albuquerque Center
Sat 06:04:43 PM 31.2208 -103.9597 107° East 422 486 41,000  Level Albuquerque Center
Sat 06:05:45 PM 31.1789 -103.8033 107° East 420 483 41,000  Level Albuquerque Center
Sat 06:06:46 PM 31.1444 -103.6828 108° East 420 483 41,000  Level Albuquerque Center
Sat 06:07:48 PM 31.1086 -103.5528 108° East 421 484 41,000  Level Albuquerque Center
Sat 06:08:49 PM 31.0733 -103.4222 107° East 423 487 41,000  Level Albuquerque Center
Sat 06:09:51 PM 31.0364 -103.2922 108° East 423 487 41,000  Level Albuquerque Center
Sat 06:10:52 PM 30.9953 -103.1369 107° East 421 484 41,000  Level Albuquerque Center
Sat 06:11:53 PM 30.9594 -103.0086 108° East 418 481 41,000  Level Albuquerque Center
Sat 06:12:55 PM 30.8933 -102.8947 124° Southeast 429 494 41,000  Level Albuquerque Center
Sat 06:13:56 PM 30.8192 -102.7900 129° Southeast 423 487 41,000  Level Albuquerque Center
Sat 06:14:58 PM 30.7447 -102.6847 129° Southeast 424 488 41,000  Level Albuquerque Center
Sat 06:15:59 PM 30.6719 -102.5803 129° Southeast 420 483 41,000  Level Albuquerque Center
Sat 06:17:01 PM 30.5981 -102.4772 130° Southeast 419 482 41,000  Level Albuquerque Center
Sat 06:18:02 PM 30.5089 -102.3525 130° Southeast 420 483 41,000  Level Albuquerque Center
Sat 06:18:47 PM 30.4661 -102.2908 129° Southeast 417 480 41,000  Level Houston Center
Sat 06:19:49 PM 30.3917 -102.1881 130° Southeast 418 481 41,000  Level Houston Center
Sat 06:20:50 PM 30.3036 -102.0619 129° Southeast 418 481 41,000  Level Houston Center
Sat 06:21:52 PM 30.2294 -101.9569 129° Southeast 420 483 41,000  Level Houston Center
Sat 06:22:53 PM 30.1567 -101.8558 130° Southeast 415 478 41,000  Level Houston Center
Sat 06:23:55 PM 30.0811 -101.7550 131° Southeast 416 479 41,000  Level Houston Center
Sat 06:24:56 PM 30.0072 -101.6533 130° Southeast 415 478 41,000  Level Houston Center
Sat 06:25:58 PM 29.9331 -101.5522 130° Southeast 415 478 41,000  Level Houston Center
Sat 06:26:59 PM 29.8592 -101.4508 130° Southeast 414 476 41,000  Level Houston Center
Sat 06:28:01 PM 29.7711 -101.3286 130° Southeast 415 478 41,000  Level Houston Center
Sat 06:29:02 PM 29.6961 -101.2283 131° Southeast 415 478 41,000  Level Houston Center
Sat 06:30:04 PM 29.6217 -101.1272 130° Southeast 416 479 41,000  Level Houston Center
Sat 06:31:05 PM 29.5481 -101.0261 130° Southeast 414 476 41,000 -49 Level Houston Center
Sat 06:32:07 PM 29.4736 -100.9253 130° Southeast 416 479 40,900 -927 Descending Houston Center
Sat 06:33:08 PM 29.3972 -100.8225 130° Southeast 424 488 39,100 -2,146 Descending Houston Center
Sat 06:34:10 PM 29.3033 -100.7350 141° Southeast 443 510 36,500 -3,024 Descending Houston Center
Sat 06:35:11 PM 29.1756 -100.6514 150° Southeast 446 513 32,900 -3,415 Descending Houston Center
Sat 06:36:13 PM 29.0714 -100.5819 150° Southeast 438 504 29,500 -3,366 Descending Houston Center
Sat 06:37:14 PM 28.9636 -100.5133 151° Southeast 444 511 26,000 -3,415 Descending Houston Center
Sat 06:38:16 PM 28.8597 -100.4428 149° Southeast 438 504 22,500 -3,463 Descending Houston Center
Sat 06:39:17 PM 28.7631 -100.3789 150° Southeast 411 473 18,900 -3,463 Descending Houston Center
Sat 06:40:19 PM 28.6719 -100.3222 151° Southeast 382 440 15,400 -3,659 Descending Houston Center
Sat 06:41:20 PM 28.5764 -100.2622 151° Southeast 362 417 11,400 -3,415 Descending Houston Center
Sat 06:42:22 PM 28.4992 -100.2111 150° Southeast 332 382 8,400 -2,903 Descending Houston Center
Sat 06:44:00 PM 28.3408 -100.1074 139° Southeast  Level FlightAware Approximate
Sat 06:51:00 PM 28.2086 -100.0188 156° South  Level Estimated
Sat 06:52:00 PM 28.2086 -100.0188 156° South  Level Estimated
Sat 06:53:00 PM 28.2086 -100.0188 156° South  Level Estimated
Sat 06:54:00 PM 28.2086 -100.0188 156° South  Level Estimated
Sat 06:55:00 PM 28.2086 -100.0188 156° South  Level Estimated
Sat 06:56:00 PM 28.2086 -100.0188 156° South  Level Estimated
Sat 06:57:00 PM 28.2086 -100.0188 156° South  Level Estimated
Sat 06:58:00 PM 28.2086 -100.0188 156° South  Level Estimated
Sat 06:59:00 PM 28.2086 -100.0188 156° South  Level Estimated
Sat 07:00:00 PM 28.2086 -100.0188 156° South  Level Estimated
Sat 07:01:00 PM 28.2086 -100.0188 156° South  Level Estimated
Sat 07:02:00 PM 28.2086 -100.0188 156° South  Level Estimated
Sat 07:03:00 PM 28.2086 -100.0188 156° South  Level Estimated

Login

Don't have an account? Register now (free) for customized features, flight alerts, and more!